createdAt,value
2024-04-07T00:00:05.457Z,180.79
2024-04-07T00:01:05.466Z,234.95
2024-04-07T00:02:05.463Z,293.22
2024-04-07T00:03:05.470Z,196.93
2024-04-07T00:04:05.470Z,181.16
2024-04-07T00:05:05.514Z,169.10
2024-04-07T00:06:05.477Z,156.80
2024-04-07T00:07:05.478Z,148.77
2024-04-07T00:08:05.483Z,140.77
2024-04-07T00:09:05.483Z,133.39
2024-04-07T00:10:05.645Z,129.95
2024-04-07T00:11:05.516Z,123.47
2024-04-07T00:12:05.488Z,120.82
2024-04-07T00:13:05.484Z,115.19
2024-04-07T00:14:05.496Z,113.42
2024-04-07T00:15:05.494Z,109.36
2024-04-07T00:16:05.484Z,107.41
2024-04-07T00:17:05.528Z,105.13
2024-04-07T00:18:05.480Z,104.39
2024-04-07T00:19:05.492Z,100.36
2024-04-07T00:20:05.494Z,99.89
2024-04-07T00:21:05.484Z,98.06
2024-04-07T00:22:05.493Z,95.87
2024-04-07T00:23:05.494Z,95.10
2024-04-07T00:24:05.513Z,92.78
2024-04-07T00:25:05.519Z,92.66
2024-04-07T00:26:05.532Z,91.63
2024-04-07T00:27:05.524Z,91.40
2024-04-07T00:28:05.521Z,90.34
2024-04-07T00:29:05.519Z,90.20
2024-04-07T00:30:05.543Z,89.37
2024-04-07T00:31:05.537Z,88.27
2024-04-07T00:32:06.109Z,88.73
2024-04-07T00:33:05.640Z,87.77
2024-04-07T00:34:05.684Z,86.92
2024-04-07T00:35:05.756Z,85.62
2024-04-07T00:36:05.804Z,85.81
2024-04-07T00:37:05.834Z,85.52
2024-04-07T00:38:05.886Z,83.71
2024-04-07T00:39:05.924Z,83.45
2024-04-07T00:40:05.959Z,84.02
2024-04-07T00:41:06.022Z,83.21
2024-04-07T00:42:06.061Z,83.20
2024-04-07T00:43:06.124Z,83.00
2024-04-07T00:44:06.150Z,81.46
2024-04-07T00:45:06.189Z,82.21
2024-04-07T00:46:06.274Z,81.47
2024-04-07T00:47:06.290Z,82.30
2024-04-07T00:48:06.321Z,80.80
2024-04-07T00:49:06.387Z,81.45
2024-04-07T00:50:06.467Z,82.53
2024-04-07T00:51:06.531Z,80.71
2024-04-07T00:52:06.609Z,79.89
2024-04-07T00:53:06.821Z,81.35
2024-04-07T00:54:06.816Z,80.69
2024-04-07T00:55:06.849Z,81.26
2024-04-07T00:56:06.895Z,81.15
2024-04-07T00:57:06.919Z,79.32
2024-04-07T00:58:09.880Z,79.70
2024-04-07T00:59:07.042Z,79.77
2024-04-07T01:00:07.079Z,79.90
2024-04-07T01:01:07.122Z,79.98
2024-04-07T01:02:07.178Z,79.42
2024-04-07T01:03:07.206Z,81.35
2024-04-07T01:04:07.252Z,78.61
2024-04-07T01:05:07.327Z,78.97
2024-04-07T01:06:07.347Z,80.29
2024-04-07T01:07:07.404Z,78.88
2024-04-07T01:08:07.455Z,80.23
2024-04-07T01:09:07.495Z,79.93
2024-04-07T01:10:07.546Z,78.09
2024-04-07T01:11:07.583Z,78.98
2024-04-07T01:12:07.628Z,77.23
2024-04-07T01:13:07.682Z,78.43
2024-04-07T01:14:07.726Z,78.61
2024-04-07T01:15:07.803Z,78.47
2024-04-07T01:16:07.882Z,77.85
2024-04-07T01:17:07.952Z,78.71
2024-04-07T01:18:08.081Z,78.60
2024-04-07T01:19:08.075Z,77.72
2024-04-07T01:20:08.155Z,77.96
2024-04-07T01:21:08.222Z,77.96
2024-04-07T01:22:08.294Z,77.99
2024-04-07T01:23:08.353Z,78.07
2024-04-07T01:24:08.412Z,78.17
2024-04-07T01:25:08.479Z,77.70
2024-04-07T01:26:08.547Z,76.68
2024-04-07T01:27:08.613Z,77.57
2024-04-07T01:28:08.685Z,78.33
2024-04-07T01:29:08.872Z,77.52
2024-04-07T01:30:08.817Z,78.36
2024-04-07T01:31:08.888Z,77.03
2024-04-07T01:32:08.968Z,77.34
2024-04-07T01:33:09.014Z,78.34
2024-04-07T01:34:09.133Z,76.57
2024-04-07T01:35:09.302Z,77.49
2024-04-07T01:36:09.257Z,77.82
2024-04-07T01:37:09.309Z,77.77
2024-04-07T01:38:09.360Z,77.00
2024-04-07T01:39:09.430Z,77.23
2024-04-07T01:40:09.488Z,77.51
2024-04-07T01:41:09.558Z,76.78
2024-04-07T01:42:09.628Z,78.30
2024-04-07T01:43:09.708Z,76.65
2024-04-07T01:44:09.769Z,77.24
2024-04-07T01:45:09.830Z,78.17
2024-04-07T01:46:09.901Z,78.24
2024-04-07T01:47:09.982Z,76.81
2024-04-07T01:48:10.057Z,77.03
2024-04-07T01:49:10.119Z,76.41
2024-04-07T01:50:10.212Z,76.77
2024-04-07T01:51:10.259Z,77.39
2024-04-07T01:52:10.324Z,76.87
2024-04-07T01:53:10.385Z,76.58
2024-04-07T01:54:10.460Z,76.20
2024-04-07T01:55:10.520Z,77.57
2024-04-07T01:56:10.595Z,75.78
2024-04-07T01:57:10.672Z,76.40
2024-04-07T01:58:10.749Z,76.49
2024-04-07T01:59:10.804Z,76.06
2024-04-07T02:00:10.867Z,77.01
2024-04-07T02:01:10.937Z,75.18
2024-04-07T02:02:11.004Z,74.25
2024-04-07T02:03:11.077Z,76.56
2024-04-07T02:04:11.142Z,76.41
2024-04-07T02:05:11.216Z,76.98
2024-04-07T02:06:11.298Z,75.43
2024-04-07T02:07:11.381Z,76.37
2024-04-07T02:08:11.427Z,76.76
2024-04-07T02:09:11.498Z,76.84
2024-04-07T02:10:11.561Z,75.02
2024-04-07T02:11:11.634Z,76.60
2024-04-07T02:12:11.699Z,76.01
2024-04-07T02:13:11.770Z,76.16
2024-04-07T02:14:11.841Z,75.61
2024-04-07T02:15:11.896Z,76.97
2024-04-07T02:16:11.968Z,76.17
2024-04-07T02:17:12.114Z,76.38
2024-04-07T02:18:12.109Z,76.28
2024-04-07T02:19:12.179Z,75.78
2024-04-07T02:20:12.249Z,76.44
2024-04-07T02:21:12.306Z,75.87
2024-04-07T02:22:12.409Z,76.07
2024-04-07T02:23:12.465Z,76.12
2024-04-07T02:24:12.524Z,75.67
2024-04-07T02:25:12.597Z,75.07
2024-04-07T02:26:12.668Z,75.61
2024-04-07T02:27:12.734Z,76.29
2024-04-07T02:28:12.816Z,74.71
2024-04-07T02:29:12.882Z,75.32
2024-04-07T02:30:12.930Z,75.34
2024-04-07T02:31:13.011Z,75.51
2024-04-07T02:32:13.089Z,75.46
2024-04-07T02:33:13.157Z,74.92
2024-04-07T02:34:13.219Z,75.09
2024-04-07T02:35:13.298Z,76.11
2024-04-07T02:36:13.364Z,74.01
2024-04-07T02:37:13.436Z,74.73
2024-04-07T02:38:13.523Z,75.67
2024-04-07T02:39:13.574Z,74.37
2024-04-07T02:40:13.641Z,75.38
2024-04-07T02:41:13.724Z,75.34
2024-04-07T02:42:13.791Z,74.56
2024-04-07T02:43:13.860Z,75.71
2024-04-07T02:44:13.925Z,75.52
2024-04-07T02:45:13.993Z,74.75
2024-04-07T02:46:14.060Z,75.16
2024-04-07T02:47:14.156Z,75.08
2024-04-07T02:48:14.204Z,74.19
2024-04-07T02:49:14.265Z,74.16
2024-04-07T02:50:14.366Z,75.49
2024-04-07T02:51:14.397Z,73.41
2024-04-07T02:52:14.471Z,74.81
2024-04-07T02:53:14.545Z,75.18
2024-04-07T02:54:14.642Z,73.41
2024-04-07T02:55:14.665Z,74.48
2024-04-07T02:56:14.740Z,76.38
2024-04-07T02:57:14.803Z,75.56
2024-04-07T02:58:14.889Z,74.77
2024-04-07T02:59:14.956Z,74.35
2024-04-07T03:00:15.029Z,74.70
2024-04-07T03:01:15.097Z,75.99
2024-04-07T03:02:15.183Z,74.61
2024-04-07T03:03:15.230Z,74.33
2024-04-07T03:04:15.310Z,74.97
2024-04-07T03:05:15.371Z,74.74
2024-04-07T03:06:15.443Z,74.06
2024-04-07T03:07:15.517Z,75.44
2024-04-07T03:08:15.586Z,74.14
2024-04-07T03:09:15.656Z,75.76
2024-04-07T03:10:15.748Z,73.81
2024-04-07T03:11:15.779Z,74.68
2024-04-07T03:12:15.839Z,76.11
2024-04-07T03:13:15.927Z,73.76
2024-04-07T03:14:15.987Z,75.18
2024-04-07T03:15:16.105Z,74.70
2024-04-07T03:16:16.128Z,73.97
2024-04-07T03:17:16.190Z,74.88
2024-04-07T03:18:16.262Z,73.98
2024-04-07T03:19:16.338Z,75.27
2024-04-07T03:20:16.394Z,74.57
2024-04-07T03:21:16.470Z,74.08
2024-04-07T03:22:16.532Z,75.41
2024-04-07T03:23:16.606Z,74.79
2024-04-07T03:24:16.681Z,74.27
2024-04-07T03:25:16.742Z,74.62
2024-04-07T03:26:16.830Z,73.94
2024-04-07T03:27:16.885Z,74.81
2024-04-07T03:28:16.949Z,74.70
2024-04-07T03:29:17.022Z,74.56
2024-04-07T03:30:17.100Z,73.83
2024-04-07T03:31:17.168Z,74.18
2024-04-07T03:32:17.250Z,74.09
2024-04-07T03:33:17.301Z,74.99
2024-04-07T03:34:17.374Z,75.13
2024-04-07T03:35:17.436Z,74.20
2024-04-07T03:36:17.515Z,75.48
2024-04-07T03:37:17.578Z,75.38
2024-04-07T03:38:17.662Z,74.29
2024-04-07T03:39:17.729Z,74.72
2024-04-07T03:40:17.787Z,73.03
2024-04-07T03:41:17.867Z,73.85
2024-04-07T03:42:17.948Z,74.85
2024-04-07T03:43:18.002Z,72.62
2024-04-07T03:44:18.071Z,75.67
2024-04-07T03:45:18.143Z,74.52
2024-04-07T03:46:18.206Z,75.36
2024-04-07T03:47:18.279Z,74.04
2024-04-07T03:48:18.346Z,74.81
2024-04-07T03:49:18.415Z,75.48
2024-04-07T03:50:18.497Z,73.67
2024-04-07T03:51:18.549Z,74.64
2024-04-07T03:52:18.625Z,73.83
2024-04-07T03:53:18.689Z,75.06
2024-04-07T03:54:18.750Z,75.17
2024-04-07T03:55:18.885Z,75.22
2024-04-07T03:56:18.897Z,75.59
2024-04-07T03:57:18.973Z,76.98
2024-04-07T03:58:19.051Z,76.41
2024-04-07T03:59:19.105Z,75.27
2024-04-07T04:00:19.175Z,74.84
2024-04-07T04:01:19.263Z,74.77
2024-04-07T04:02:19.318Z,75.76
2024-04-07T04:03:19.386Z,76.21
2024-04-07T04:04:19.456Z,75.77
2024-04-07T04:05:19.517Z,75.54
2024-04-07T04:06:19.592Z,74.65
2024-04-07T04:07:19.672Z,73.98
2024-04-07T04:08:19.732Z,74.95
2024-04-07T04:09:19.805Z,74.82
2024-04-07T04:10:19.871Z,74.89
2024-04-07T04:11:19.939Z,75.78
2024-04-07T04:12:20.017Z,74.53
2024-04-07T04:13:20.067Z,75.16
2024-04-07T04:14:20.160Z,75.77
2024-04-07T04:15:20.220Z,74.76
2024-04-07T04:16:20.282Z,75.21
2024-04-07T04:17:20.346Z,75.29
2024-04-07T04:18:20.473Z,74.55
2024-04-07T04:19:20.472Z,75.92
2024-04-07T04:20:20.554Z,76.16
2024-04-07T04:21:20.622Z,75.32
2024-04-07T04:22:20.739Z,76.17
2024-04-07T04:23:20.787Z,75.88
2024-04-07T04:24:20.850Z,75.46
2024-04-07T04:25:20.914Z,75.29
2024-04-07T04:26:20.987Z,73.39
2024-04-07T04:27:21.051Z,74.67
2024-04-07T04:28:21.107Z,75.05
2024-04-07T04:29:21.176Z,75.82
2024-04-07T04:30:21.272Z,75.56
2024-04-07T04:31:21.326Z,74.21
2024-04-07T04:32:21.414Z,75.21
2024-04-07T04:33:21.482Z,75.47
2024-04-07T04:34:21.527Z,74.91
2024-04-07T04:35:21.620Z,74.77
2024-04-07T04:36:21.662Z,74.36
2024-04-07T04:37:21.738Z,74.63
2024-04-07T04:38:21.806Z,75.37
2024-04-07T04:39:21.878Z,74.97
2024-04-07T04:40:21.950Z,75.23
2024-04-07T04:41:22.012Z,74.73
2024-04-07T04:42:22.090Z,76.04
2024-04-07T04:43:22.156Z,74.74
2024-04-07T04:44:22.224Z,76.94
2024-04-07T04:45:22.296Z,73.97
2024-04-07T04:46:29.521Z,50.00
2024-04-07T04:47:30.515Z,50.00
2024-04-07T04:48:30.505Z,50.00
2024-04-07T04:49:30.503Z,50.00
2024-04-07T04:50:30.539Z,50.00
2024-04-07T04:51:30.499Z,50.37
2024-04-07T04:52:30.560Z,50.42
2024-04-07T04:53:30.516Z,53.13
2024-04-07T04:54:30.508Z,53.23
2024-04-07T04:55:30.514Z,52.34
2024-04-07T04:56:30.510Z,51.81
2024-04-07T04:57:30.549Z,51.86
2024-04-07T04:58:30.563Z,54.82
2024-04-07T04:59:30.562Z,52.01
2024-04-07T05:00:30.556Z,55.14
2024-04-07T05:01:30.569Z,53.55
2024-04-07T05:02:30.592Z,52.94
2024-04-07T05:03:30.631Z,55.12
2024-04-07T05:04:30.663Z,55.42
2024-04-07T05:05:30.725Z,52.85
2024-04-07T05:06:30.787Z,54.27
2024-04-07T05:07:30.848Z,52.99
2024-04-07T05:08:30.906Z,50.15
2024-04-07T05:09:30.967Z,54.87
2024-04-07T05:10:31.025Z,52.63
2024-04-07T05:11:31.099Z,56.84
2024-04-07T05:12:31.157Z,52.82
2024-04-07T05:13:31.199Z,54.44
2024-04-07T05:14:31.251Z,51.42
2024-04-07T05:15:31.306Z,51.22
2024-04-07T05:16:31.371Z,51.86
2024-04-07T05:17:31.468Z,53.29
2024-04-07T05:18:31.517Z,51.91
2024-04-07T05:19:31.566Z,53.96
2024-04-07T05:20:31.630Z,51.15
2024-04-07T05:21:31.699Z,53.89
2024-04-07T05:22:31.771Z,54.68
2024-04-07T05:23:31.826Z,52.58
2024-04-07T05:24:31.891Z,53.51
2024-04-07T05:25:31.953Z,53.12
2024-04-07T05:26:32.030Z,54.19
2024-04-07T05:27:32.101Z,52.14
2024-04-07T05:28:32.165Z,51.37
2024-04-07T05:29:32.232Z,52.89
2024-04-07T05:30:32.309Z,54.01
2024-04-07T05:31:32.381Z,54.75
2024-04-07T05:32:32.451Z,54.92
2024-04-07T05:33:32.522Z,55.22
2024-04-07T05:34:32.594Z,54.87
2024-04-07T05:35:32.653Z,54.18
2024-04-07T05:36:32.791Z,54.11
2024-04-07T05:37:32.799Z,54.61
2024-04-07T05:38:32.876Z,54.68
2024-04-07T05:39:32.941Z,51.22
2024-04-07T05:40:33.626Z,54.29
2024-04-07T05:41:33.070Z,54.27
2024-04-07T05:42:33.140Z,54.01
2024-04-07T05:43:33.190Z,53.43
2024-04-07T05:44:33.274Z,51.06
2024-04-07T05:45:33.308Z,53.94
2024-04-07T05:46:33.364Z,54.91
2024-04-07T05:47:33.440Z,53.09
2024-04-07T05:48:33.484Z,52.76
2024-04-07T05:49:33.552Z,54.20
2024-04-07T05:50:33.614Z,52.11
2024-04-07T05:51:33.667Z,54.89
2024-04-07T05:52:33.722Z,53.65
2024-04-07T05:53:33.781Z,54.30
2024-04-07T05:54:33.840Z,54.07
2024-04-07T05:55:33.899Z,54.83
2024-04-07T05:56:33.959Z,54.87
2024-04-07T05:57:34.015Z,52.77
2024-04-07T05:58:34.643Z,53.26
2024-04-07T05:59:34.143Z,53.20
2024-04-07T06:00:34.180Z,53.27
2024-04-07T06:01:34.233Z,54.71
2024-04-07T06:02:34.315Z,53.77
2024-04-07T06:03:34.363Z,52.15
2024-04-07T06:04:34.422Z,53.22
2024-04-07T06:05:34.488Z,53.71
2024-04-07T06:06:34.554Z,54.68
2024-04-07T06:07:34.603Z,52.57
2024-04-07T06:08:34.668Z,54.14
2024-04-07T06:09:34.728Z,54.69
2024-04-07T06:10:34.800Z,52.93
2024-04-07T06:11:34.846Z,52.91
2024-04-07T06:12:34.917Z,52.66
2024-04-07T06:13:34.970Z,54.42
2024-04-07T06:14:35.024Z,55.44
2024-04-07T06:15:35.085Z,53.16
2024-04-07T06:16:35.151Z,50.61
2024-04-07T06:17:35.230Z,52.33
2024-04-07T06:18:35.264Z,51.50
2024-04-07T06:19:35.327Z,54.21
2024-04-07T06:20:35.386Z,51.68
2024-04-07T06:21:35.446Z,53.04
2024-04-07T06:22:35.524Z,53.37
2024-04-07T06:23:35.561Z,53.91
2024-04-07T06:24:35.630Z,52.50
2024-04-07T06:25:35.702Z,53.80
2024-04-07T06:26:35.740Z,52.99
2024-04-07T06:27:35.807Z,55.48
2024-04-07T06:28:35.864Z,52.58
2024-04-07T06:29:35.917Z,52.42
2024-04-07T06:30:35.979Z,50.96
2024-04-07T06:31:36.028Z,52.08
2024-04-07T06:32:36.091Z,52.47
2024-04-07T06:33:36.150Z,52.24
2024-04-07T06:34:36.198Z,53.34
2024-04-07T06:35:36.255Z,52.36
2024-04-07T06:36:37.181Z,51.33
2024-04-07T06:37:36.375Z,53.49
2024-04-07T06:38:36.454Z,50.99
2024-04-07T06:39:36.492Z,52.09
2024-04-07T06:40:36.559Z,51.00
2024-04-07T06:41:36.583Z,54.68
2024-04-07T06:42:36.636Z,54.18
2024-04-07T06:43:36.703Z,56.15
2024-04-07T06:44:36.754Z,56.59
2024-04-07T06:45:36.772Z,54.35
2024-04-07T06:46:36.810Z,53.96
2024-04-07T06:47:36.853Z,56.14
2024-04-07T06:48:36.879Z,54.90
2024-04-07T06:49:36.908Z,54.84
2024-04-07T06:50:36.978Z,52.54
2024-04-07T06:51:37.655Z,55.10
2024-04-07T06:52:37.092Z,53.58
2024-04-07T06:53:37.118Z,55.38
2024-04-07T06:54:37.163Z,55.02
2024-04-07T06:55:37.196Z,58.01
2024-04-07T06:56:37.184Z,57.02
2024-04-07T06:57:37.210Z,56.49
2024-04-07T06:58:37.276Z,58.77
2024-04-07T06:59:37.337Z,58.41
2024-04-07T07:00:37.426Z,59.81
2024-04-07T07:01:37.523Z,57.30
2024-04-07T07:02:37.620Z,57.37
2024-04-07T07:03:37.715Z,57.71
2024-04-07T07:04:37.823Z,56.06
2024-04-07T07:05:37.922Z,56.66
2024-04-07T07:06:38.030Z,55.24
2024-04-07T07:07:38.115Z,54.83
2024-04-07T07:08:38.207Z,55.03
2024-04-07T07:09:38.304Z,53.40
2024-04-07T07:10:38.418Z,53.94
2024-04-07T07:11:38.510Z,55.23
2024-04-07T07:12:38.610Z,54.94
2024-04-07T07:13:38.708Z,58.67
2024-04-07T07:14:38.832Z,57.29
2024-04-07T07:15:38.951Z,57.96
2024-04-07T07:16:40.209Z,58.13
2024-04-07T07:17:39.098Z,57.28
2024-04-07T07:18:39.125Z,56.71
2024-04-07T07:19:39.171Z,57.77
2024-04-07T07:20:39.210Z,56.35
2024-04-07T07:21:39.263Z,54.03
2024-04-07T07:22:39.319Z,52.65
2024-04-07T07:23:39.540Z,53.83
2024-04-07T07:24:39.420Z,54.54
2024-04-07T07:25:39.484Z,54.40
2024-04-07T07:26:42.653Z,54.78
2024-04-07T07:27:39.554Z,54.85
2024-04-07T07:28:39.547Z,55.43
2024-04-07T07:29:39.551Z,55.79
2024-04-07T07:30:39.571Z,57.09
2024-04-07T07:31:39.568Z,58.06
2024-04-07T07:32:39.561Z,60.26
2024-04-07T07:33:39.566Z,58.64
2024-04-07T07:34:39.554Z,60.08
2024-04-07T07:35:39.558Z,59.18
2024-04-07T07:36:39.559Z,59.77
2024-04-07T07:37:39.577Z,59.18
2024-04-07T07:38:39.581Z,57.26
2024-04-07T07:39:39.596Z,58.05
2024-04-07T07:40:39.566Z,56.74
2024-04-07T07:41:39.590Z,56.69
2024-04-07T07:42:39.686Z,57.99
2024-04-07T07:43:39.580Z,57.93
2024-04-07T07:44:39.588Z,55.10
2024-04-07T07:45:39.596Z,55.42
2024-04-07T07:46:39.580Z,55.02
2024-04-07T07:47:39.580Z,57.56
2024-04-07T07:48:39.592Z,53.46
2024-04-07T07:49:39.614Z,53.36
2024-04-07T07:50:41.054Z,55.02
2024-04-07T07:51:39.837Z,53.72
2024-04-07T07:52:39.887Z,51.44
2024-04-07T07:53:39.919Z,53.16
2024-04-07T07:54:40.057Z,53.78
2024-04-07T07:55:40.049Z,56.10
2024-04-07T07:56:40.035Z,52.98
2024-04-07T07:57:40.076Z,49.51
2024-04-07T07:58:40.222Z,57.30
2024-04-07T07:59:40.148Z,54.23
2024-04-07T08:00:40.183Z,53.86
2024-04-07T08:01:41.186Z,54.46
2024-04-07T08:02:40.279Z,55.32
2024-04-07T08:03:40.325Z,52.36
2024-04-07T08:04:40.361Z,54.56
2024-04-07T08:05:40.408Z,52.49
2024-04-07T08:06:43.031Z,55.43
2024-04-07T08:07:40.443Z,55.51
2024-04-07T08:08:40.446Z,54.29
2024-04-07T08:09:40.489Z,55.61
2024-04-07T08:10:40.498Z,52.89
2024-04-07T08:11:40.505Z,53.05
2024-04-07T08:12:40.498Z,53.44
2024-04-07T08:13:40.511Z,54.68
2024-04-07T08:14:40.579Z,51.91
2024-04-07T08:15:40.600Z,53.08
2024-04-07T08:16:40.650Z,55.35
2024-04-07T08:17:40.701Z,53.38
2024-04-07T08:18:40.738Z,53.52
2024-04-07T08:19:40.775Z,56.00
2024-04-07T08:20:40.832Z,52.75
2024-04-07T08:21:40.904Z,52.10
2024-04-07T08:22:41.015Z,54.74
2024-04-07T08:23:41.044Z,51.89
2024-04-07T08:24:41.108Z,51.62
2024-04-07T08:25:41.198Z,52.00
2024-04-07T08:26:41.302Z,52.27
2024-04-07T08:27:41.350Z,51.99
2024-04-07T08:28:41.445Z,51.94
2024-04-07T08:29:41.487Z,52.83
2024-04-07T08:30:41.594Z,54.79
2024-04-07T08:31:41.645Z,53.66
2024-04-07T08:32:41.720Z,52.23
2024-04-07T08:33:41.787Z,54.22
2024-04-07T08:34:41.957Z,52.52
2024-04-07T08:35:41.984Z,50.39
2024-04-07T08:36:42.008Z,53.04
2024-04-07T08:37:42.094Z,52.70
2024-04-07T08:38:42.171Z,53.96
2024-04-07T08:39:42.251Z,52.17
2024-04-07T08:40:42.314Z,52.38
2024-04-07T08:41:42.414Z,51.07
2024-04-07T08:42:42.475Z,52.91
2024-04-07T08:43:42.574Z,54.35
2024-04-07T08:44:42.621Z,50.67
2024-04-07T08:45:42.710Z,53.87
2024-04-07T08:46:42.805Z,53.86
2024-04-07T08:47:42.871Z,53.21
2024-04-07T08:48:42.947Z,53.80
2024-04-07T08:49:43.010Z,55.00
2024-04-07T08:50:43.093Z,55.94
2024-04-07T08:51:43.183Z,55.83
2024-04-07T08:52:43.259Z,55.86
2024-04-07T08:53:43.341Z,55.24
2024-04-07T08:54:43.416Z,52.68
2024-04-07T08:55:43.493Z,52.94
2024-04-07T08:56:43.572Z,52.11
2024-04-07T08:57:43.653Z,54.54
2024-04-07T08:58:43.735Z,52.98
2024-04-07T08:59:43.818Z,57.22
2024-04-07T09:00:43.896Z,51.68
2024-04-07T09:01:43.968Z,54.53
2024-04-07T09:02:44.066Z,54.15
2024-04-07T09:03:44.130Z,53.41
2024-04-07T09:04:44.210Z,53.75
2024-04-07T09:05:44.295Z,55.37
2024-04-07T09:06:44.387Z,53.45
2024-04-07T09:07:44.468Z,53.51
2024-04-07T09:08:44.545Z,55.13
2024-04-07T09:09:44.618Z,54.53
2024-04-07T09:10:44.816Z,53.15
2024-04-07T09:11:44.776Z,54.34
2024-04-07T09:12:44.862Z,53.33
2024-04-07T09:13:44.956Z,52.03
2024-04-07T09:14:45.011Z,54.49
2024-04-07T09:15:45.082Z,54.92
2024-04-07T09:16:45.165Z,53.54
2024-04-07T09:17:45.257Z,56.85
2024-04-07T09:18:45.336Z,56.30
2024-04-07T09:19:45.407Z,57.24
2024-04-07T09:20:45.487Z,54.25
2024-04-07T09:21:45.561Z,54.94
2024-04-07T09:22:45.647Z,56.65
2024-04-07T09:23:45.721Z,56.63
2024-04-07T09:24:45.791Z,53.46
2024-04-07T09:25:49.161Z,56.61
2024-04-07T09:26:45.872Z,56.65
2024-04-07T09:27:45.880Z,56.71
2024-04-07T09:28:45.874Z,56.03
2024-04-07T09:29:45.887Z,56.26
2024-04-07T09:30:45.872Z,54.06
2024-04-07T09:31:45.878Z,53.70
2024-04-07T09:32:45.880Z,55.59
2024-04-07T09:33:45.899Z,55.72
2024-04-07T09:34:45.879Z,57.25
2024-04-07T09:35:45.877Z,55.97
2024-04-07T09:36:45.888Z,54.68
2024-04-07T09:37:45.943Z,56.53
2024-04-07T09:38:45.880Z,55.74
2024-04-07T09:39:45.885Z,53.53
2024-04-07T09:40:45.885Z,56.43
2024-04-07T09:41:45.886Z,54.67
2024-04-07T09:42:45.892Z,53.22
2024-04-07T09:43:45.893Z,54.33
2024-04-07T09:44:45.890Z,53.66
2024-04-07T09:45:45.935Z,54.03
2024-04-07T09:46:45.933Z,54.20
2024-04-07T09:47:45.939Z,54.08
2024-04-07T09:48:45.950Z,53.50
2024-04-07T09:49:45.959Z,53.89
2024-04-07T09:50:45.961Z,55.32
2024-04-07T09:51:45.945Z,55.47
2024-04-07T09:52:45.959Z,55.81
2024-04-07T09:53:46.055Z,55.32
2024-04-07T09:54:46.113Z,57.34
2024-04-07T09:55:46.187Z,53.05
2024-04-07T09:56:46.277Z,55.00
2024-04-07T09:57:46.357Z,53.69
2024-04-07T09:58:46.412Z,57.04
2024-04-07T09:59:46.495Z,53.64
2024-04-07T10:00:46.576Z,53.99
2024-04-07T10:01:46.777Z,52.73
2024-04-07T10:02:46.745Z,54.65
2024-04-07T10:03:46.838Z,57.10
2024-04-07T10:04:46.871Z,53.45
2024-04-07T10:05:46.969Z,53.72
2024-04-07T10:06:47.017Z,53.51
2024-04-07T10:07:47.087Z,57.81
2024-04-07T10:08:47.176Z,53.50
2024-04-07T10:09:47.246Z,55.19
2024-04-07T10:10:58.454Z,55.50
2024-04-07T10:11:47.321Z,55.58
2024-04-07T10:12:47.316Z,56.11
2024-04-07T10:13:47.327Z,56.17
2024-04-07T10:14:47.322Z,53.95
2024-04-07T10:15:47.318Z,54.46
2024-04-07T10:16:47.325Z,54.68
2024-04-07T10:17:47.361Z,54.18
2024-04-07T10:18:47.369Z,55.42
2024-04-07T10:19:47.359Z,54.41
2024-04-07T10:20:47.368Z,55.67
2024-04-07T10:21:47.383Z,53.69
2024-04-07T10:22:47.373Z,52.90
2024-04-07T10:23:49.089Z,53.82
2024-04-07T10:24:47.375Z,57.70
2024-04-07T10:25:47.372Z,56.19
2024-04-07T10:26:47.370Z,56.81
2024-04-07T10:27:47.380Z,55.53
2024-04-07T10:28:47.367Z,53.26
2024-04-07T10:29:47.373Z,54.88
2024-04-07T10:30:47.420Z,55.74
2024-04-07T10:31:47.412Z,55.23
2024-04-07T10:32:47.412Z,57.00
2024-04-07T10:33:47.422Z,55.97
2024-04-07T10:34:47.422Z,54.84
2024-04-07T10:35:47.416Z,53.53
2024-04-07T10:36:47.416Z,54.00
2024-04-07T10:37:47.440Z,54.12
2024-04-07T10:38:47.426Z,57.42
2024-04-07T10:39:47.464Z,53.73
2024-04-07T10:40:47.418Z,53.15
2024-04-07T10:41:47.426Z,53.28
2024-04-07T10:42:47.426Z,51.19
2024-04-07T10:43:47.435Z,52.46
2024-04-07T10:44:47.442Z,53.91
2024-04-07T10:45:47.433Z,54.21
2024-04-07T10:46:47.438Z,53.77
2024-04-07T10:47:47.437Z,54.18
2024-04-07T10:48:47.444Z,54.62
2024-04-07T10:49:47.443Z,53.62
2024-04-07T10:50:47.489Z,50.84
2024-04-07T10:51:47.497Z,53.61
2024-04-07T10:52:47.487Z,50.71
2024-04-07T10:53:47.511Z,54.02
2024-04-07T10:54:47.501Z,53.48
2024-04-07T10:55:47.493Z,55.42
2024-04-07T10:56:47.493Z,54.73
2024-04-07T10:57:47.507Z,54.51
2024-04-07T10:58:47.596Z,52.84
2024-04-07T10:59:47.666Z,55.30
2024-04-07T11:00:47.754Z,55.74
2024-04-07T11:01:47.835Z,54.67
2024-04-07T11:02:47.908Z,54.73
2024-04-07T11:03:48.003Z,51.01
2024-04-07T11:04:48.094Z,53.33
2024-04-07T11:05:48.165Z,54.68
2024-04-07T11:06:48.254Z,52.52
2024-04-07T11:07:48.335Z,54.52
2024-04-07T11:08:48.432Z,57.05
2024-04-07T11:09:48.520Z,53.41
2024-04-07T11:10:48.592Z,53.31
2024-04-07T11:11:48.662Z,51.66
2024-04-07T11:12:48.741Z,54.47
2024-04-07T11:13:48.830Z,55.53
2024-04-07T11:14:48.910Z,52.68
2024-04-07T11:15:48.978Z,54.49
2024-04-07T11:16:49.062Z,52.82
2024-04-07T11:17:49.210Z,52.20
2024-04-07T11:18:49.217Z,56.51
2024-04-07T11:19:49.310Z,55.87
2024-04-07T11:20:49.386Z,54.73
2024-04-07T11:21:49.475Z,55.20
2024-04-07T11:22:49.545Z,54.34
2024-04-07T11:23:49.636Z,53.52
2024-04-07T11:24:49.705Z,55.95
2024-04-07T11:25:49.800Z,51.74
2024-04-07T11:26:49.868Z,54.57
2024-04-07T11:27:49.941Z,55.22
2024-04-07T11:28:50.027Z,54.39
2024-04-07T11:29:50.115Z,55.64
2024-04-07T11:30:50.200Z,57.21
2024-04-07T11:32:00.442Z,56.15
2024-04-07T11:32:50.290Z,56.24
2024-04-07T11:33:50.283Z,56.72
2024-04-07T11:34:50.290Z,56.49
2024-04-07T11:35:50.290Z,57.25
2024-04-07T11:36:50.296Z,58.34
2024-04-07T11:37:50.309Z,58.25
2024-04-07T11:38:50.312Z,56.14
2024-04-07T11:39:56.906Z,59.07
2024-04-07T11:40:50.332Z,59.18
2024-04-07T11:41:50.331Z,59.24
2024-04-07T11:42:50.315Z,58.00
2024-04-07T11:43:50.316Z,60.22
2024-04-07T11:44:50.312Z,59.45
2024-04-07T11:45:50.317Z,58.07
2024-04-07T11:46:50.323Z,56.25
2024-04-07T11:47:50.363Z,56.83
2024-04-07T11:48:50.327Z,57.95
2024-04-07T11:49:50.337Z,57.24
2024-04-07T11:50:50.329Z,58.71
2024-04-07T11:51:50.328Z,56.52
2024-04-07T11:52:50.329Z,58.34
2024-04-07T11:53:50.356Z,60.12
2024-04-07T11:54:50.340Z,56.53
2024-04-07T11:55:50.377Z,56.70
2024-04-07T11:56:50.387Z,58.11
2024-04-07T11:57:50.391Z,57.74
2024-04-07T11:58:50.382Z,58.91
2024-04-07T11:59:50.383Z,58.42
2024-04-07T12:00:50.387Z,58.35
2024-04-07T12:01:50.389Z,59.13
2024-04-07T12:02:50.389Z,56.05
2024-04-07T12:03:50.397Z,59.79
2024-04-07T12:04:50.438Z,57.23
2024-04-07T12:05:50.448Z,57.26
2024-04-07T12:06:50.444Z,55.33
2024-04-07T12:07:50.447Z,59.63
2024-04-07T12:08:50.440Z,58.08
2024-04-07T12:09:50.439Z,60.33
2024-04-07T12:10:50.459Z,57.88
2024-04-07T12:11:50.491Z,58.22
2024-04-07T12:12:50.577Z,58.39
2024-04-07T12:13:50.693Z,61.08
2024-04-07T12:14:50.759Z,57.41
2024-04-07T12:15:50.855Z,57.43
2024-04-07T12:16:50.919Z,60.56
2024-04-07T12:17:51.006Z,57.69
2024-04-07T12:18:51.082Z,57.77
2024-04-07T12:19:51.157Z,62.22
2024-04-07T12:20:51.247Z,60.63
2024-04-07T12:21:51.319Z,62.42
2024-04-07T12:22:51.407Z,60.71
2024-04-07T12:23:51.507Z,61.62
2024-04-07T12:24:54.294Z,59.75
2024-04-07T12:25:51.587Z,59.83
2024-04-07T12:26:51.596Z,60.25
2024-04-07T12:27:51.599Z,60.50
2024-04-07T12:28:51.587Z,60.20
2024-04-07T12:29:51.618Z,62.66
2024-04-07T12:30:51.593Z,61.59
2024-04-07T12:31:51.591Z,60.44
2024-04-07T12:32:51.617Z,61.29
2024-04-07T12:33:51.640Z,63.72
2024-04-07T12:34:51.622Z,61.06
2024-04-07T12:35:51.626Z,61.61
2024-04-07T12:36:51.626Z,60.87
2024-04-07T12:37:51.636Z,59.91
2024-04-07T12:38:51.643Z,59.96
2024-04-07T12:39:51.678Z,59.59
2024-04-07T12:40:51.763Z,60.25
2024-04-07T12:41:51.846Z,61.14
2024-04-07T12:42:51.927Z,60.48
2024-04-07T12:43:52.011Z,61.76
2024-04-07T12:44:52.090Z,60.71
2024-04-07T12:45:52.187Z,60.14
2024-04-07T12:46:52.278Z,61.97
2024-04-07T12:47:52.360Z,61.25
2024-04-07T12:48:52.437Z,61.53
2024-04-07T12:49:52.521Z,59.86
2024-04-07T12:50:52.616Z,61.80
2024-04-07T12:51:52.696Z,62.46
2024-04-07T12:52:52.779Z,60.85